createdAt,value
2023-02-23T00:02:43.199Z,6.99
2023-02-23T00:05:45.847Z,7.09
2023-02-23T00:08:47.448Z,7.16
2023-02-23T00:11:50.379Z,7.20
2023-02-23T00:14:52.928Z,7.14
2023-02-23T00:17:56.294Z,6.89
2023-02-23T00:20:58.976Z,7.12
2023-02-23T00:24:02.592Z,7.16
2023-02-23T00:27:07.078Z,7.25
2023-02-23T00:30:12.080Z,6.90
2023-02-23T00:33:14.060Z,7.00
2023-02-23T00:39:36.364Z,6.84
2023-02-23T00:42:38.936Z,6.91
2023-02-23T00:45:41.502Z,7.02
2023-02-23T00:48:44.159Z,6.73
2023-02-23T00:51:47.416Z,6.66
2023-02-23T00:54:48.984Z,6.87
2023-02-23T00:57:52.271Z,6.88
2023-02-23T01:00:54.995Z,6.90
2023-02-23T01:03:57.001Z,6.92
2023-02-23T01:06:59.581Z,6.72
2023-02-23T01:10:00.869Z,6.74
2023-02-23T01:13:03.368Z,6.89
2023-02-23T01:16:07.532Z,6.99
2023-02-23T01:19:10.153Z,6.92
2023-02-23T01:22:12.710Z,6.57
2023-02-23T01:25:15.715Z,6.68
2023-02-23T01:28:18.325Z,6.56
2023-02-23T01:31:22.769Z,6.55
2023-02-23T01:34:25.126Z,6.54
2023-02-23T01:37:28.050Z,6.50
2023-02-23T01:40:29.910Z,6.60
2023-02-23T01:43:32.518Z,6.47
2023-02-23T01:46:36.400Z,6.35
2023-02-23T01:49:39.483Z,6.53
2023-02-23T01:52:42.112Z,6.59
2023-02-23T01:55:43.969Z,6.62
2023-02-23T01:58:52.516Z,6.50
2023-02-23T02:01:54.997Z,6.57
2023-02-23T02:04:58.478Z,6.56
2023-02-23T02:08:01.198Z,6.62
2023-02-23T02:11:09.239Z,6.48
2023-02-23T02:14:17.235Z,6.58
2023-02-23T02:17:31.520Z,6.34
2023-02-23T02:21:11.970Z,6.43
2023-02-23T02:24:33.623Z,6.38
2023-02-23T02:28:21.419Z,6.29
2023-02-23T02:31:51.242Z,6.25
2023-02-23T02:35:31.764Z,6.24
2023-02-23T02:38:51.430Z,6.36
2023-02-23T02:42:02.152Z,6.58
2023-02-23T02:45:12.966Z,6.40
2023-02-23T02:48:37.862Z,6.42
2023-02-23T02:51:49.399Z,6.52
2023-02-23T02:54:55.737Z,6.76
2023-02-23T02:57:59.925Z,6.74
2023-02-23T03:01:25.383Z,6.45
2023-02-23T03:04:45.850Z,6.48
2023-02-23T03:08:12.909Z,6.41
2023-02-23T03:11:34.984Z,6.50
2023-02-23T03:15:04.150Z,6.26
2023-02-23T03:18:34.966Z,6.33
2023-02-23T03:25:51.797Z,6.33
2023-02-23T03:29:20.628Z,6.29
2023-02-23T03:32:47.912Z,6.28
2023-02-23T03:36:14.849Z,6.57
2023-02-23T03:39:40.696Z,6.49
2023-02-23T03:43:04.223Z,6.51
2023-02-23T03:46:27.848Z,6.63
2023-02-23T03:49:53.821Z,6.32
2023-02-23T03:53:18.818Z,6.31
2023-02-23T03:56:43.497Z,6.31
2023-02-23T04:00:08.300Z,6.33
2023-02-23T04:03:34.174Z,6.27
2023-02-23T04:06:57.999Z,6.59
2023-02-23T04:10:18.509Z,6.26
2023-02-23T04:16:46.065Z,6.24
2023-02-23T04:19:52.190Z,6.18
2023-02-23T04:22:54.769Z,6.17
2023-02-23T04:25:56.990Z,6.33
2023-02-23T04:32:21.601Z,6.15
2023-02-23T04:35:23.997Z,6.08
2023-02-23T04:38:25.334Z,6.18
2023-02-23T04:41:26.833Z,6.27
2023-02-23T04:44:28.235Z,6.14
2023-02-23T04:47:29.593Z,6.17
2023-02-23T04:50:32.668Z,6.23
2023-02-23T04:53:34.240Z,6.53
2023-02-23T04:56:35.630Z,6.41
2023-02-23T04:59:38.498Z,6.48
2023-02-23T05:02:40.022Z,6.28
2023-02-23T05:05:43.246Z,6.18
2023-02-23T05:08:44.914Z,6.16
2023-02-23T05:11:47.772Z,5.95
2023-02-23T05:14:49.065Z,6.01
2023-02-23T05:17:51.623Z,5.90
2023-02-23T05:21:01.883Z,6.08
2023-02-23T05:24:03.545Z,6.10
2023-02-23T05:27:04.952Z,6.11
2023-02-23T05:30:09.162Z,6.05
2023-02-23T05:33:13.305Z,5.98
2023-02-23T05:36:19.267Z,5.64
2023-02-23T05:39:20.652Z,5.76
2023-02-23T05:42:23.185Z,5.66
2023-02-23T05:45:24.476Z,5.63
2023-02-23T05:48:25.788Z,5.51
2023-02-23T05:51:30.352Z,5.40
2023-02-23T05:54:31.727Z,5.42
2023-02-23T05:57:34.353Z,5.35
2023-02-23T06:00:36.907Z,5.21
2023-02-23T06:03:38.653Z,5.17
2023-02-23T06:06:40.618Z,5.08
2023-02-23T06:09:44.308Z,5.04
2023-02-23T06:12:47.198Z,5.13
2023-02-23T06:15:48.973Z,5.13
2023-02-23T06:22:13.387Z,5.01
2023-02-23T06:25:14.889Z,5.00
2023-02-23T06:28:17.417Z,5.02
2023-02-23T06:31:18.989Z,4.96
2023-02-23T06:34:21.741Z,5.11
2023-02-23T06:37:23.705Z,5.07
2023-02-23T06:40:26.432Z,5.08
2023-02-23T06:43:28.923Z,5.09
2023-02-23T06:46:32.469Z,5.17
2023-02-23T06:49:34.973Z,5.17
2023-02-23T06:52:37.227Z,5.18
2023-02-23T06:55:39.820Z,5.26
2023-02-23T06:58:42.373Z,5.42
2023-02-23T07:01:45.201Z,5.46
2023-02-23T07:04:46.514Z,5.41
2023-02-23T07:07:49.668Z,5.42
2023-02-23T07:10:50.974Z,5.50
2023-02-23T07:13:53.496Z,5.48
2023-02-23T07:16:54.828Z,5.54
2023-02-23T07:19:57.967Z,5.55
2023-02-23T07:23:01.203Z,5.65
2023-02-23T07:26:03.739Z,5.71
2023-02-23T07:29:05.042Z,5.81
2023-02-23T07:32:07.013Z,5.75
2023-02-23T07:35:10.522Z,5.77
2023-02-23T07:38:12.900Z,5.83
2023-02-23T07:44:35.562Z,6.01
2023-02-23T07:47:38.581Z,6.05
2023-02-23T07:50:40.502Z,6.14
2023-02-23T07:53:44.472Z,6.13
2023-02-23T07:56:46.977Z,6.13
2023-02-23T07:59:48.539Z,6.17
2023-02-23T08:02:51.116Z,6.25
2023-02-23T08:05:54.004Z,6.39
2023-02-23T08:08:58.012Z,6.55
2023-02-23T08:12:00.601Z,6.67
2023-02-23T08:15:03.644Z,6.77
2023-02-23T08:18:04.996Z,6.73
2023-02-23T08:21:08.239Z,6.76
2023-02-23T08:24:10.487Z,6.90
2023-02-23T08:30:35.151Z,7.12
2023-02-23T08:33:38.015Z,7.27
2023-02-23T08:36:41.143Z,7.28
2023-02-23T08:39:43.677Z,7.40
2023-02-23T08:42:46.387Z,7.44
2023-02-23T08:45:47.992Z,7.51
2023-02-23T08:48:49.856Z,7.53
2023-02-23T08:51:51.474Z,7.63
2023-02-23T08:54:55.192Z,7.88
2023-02-23T08:57:56.533Z,7.73
2023-02-23T09:00:59.466Z,7.77
2023-02-23T09:04:00.871Z,7.84
2023-02-23T09:10:28.165Z,7.90
2023-02-23T09:13:29.635Z,8.04
2023-02-23T09:16:31.527Z,8.17
2023-02-23T09:22:54.001Z,8.26
2023-02-23T09:25:56.095Z,8.26
2023-02-23T09:29:00.936Z,8.36
2023-02-23T09:32:03.591Z,8.49
2023-02-23T09:35:06.504Z,8.69
2023-02-23T09:38:08.379Z,8.84
2023-02-23T09:41:42.346Z,8.63
2023-02-23T09:44:55.331Z,8.72
2023-02-23T09:48:08.544Z,8.89
2023-02-23T09:51:17.384Z,9.00
2023-02-23T09:54:22.009Z,9.08
2023-02-23T09:57:35.880Z,9.36
2023-02-23T10:00:43.068Z,9.38
2023-02-23T10:03:53.924Z,9.63
2023-02-23T10:07:00.639Z,9.65
2023-02-23T10:10:22.135Z,9.84
2023-02-23T10:13:37.803Z,9.98
2023-02-23T10:16:51.187Z,10.35
2023-02-23T10:23:27.071Z,10.86
2023-02-23T10:26:37.699Z,11.32
2023-02-23T10:29:45.738Z,11.61
2023-02-23T10:32:57.173Z,11.94
2023-02-23T10:36:13.548Z,12.24
2023-02-23T10:39:15.324Z,12.20
2023-02-23T10:42:22.718Z,12.56
2023-02-23T10:45:26.745Z,12.70
2023-02-23T10:48:35.111Z,12.96
2023-02-23T10:51:40.614Z,13.10
2023-02-23T10:54:48.106Z,13.42
2023-02-23T10:57:51.610Z,13.67
2023-02-23T11:00:57.826Z,13.44
2023-02-23T11:04:14.334Z,13.51
2023-02-23T11:07:18.745Z,13.70
2023-02-23T11:10:27.462Z,13.85
2023-02-23T11:13:34.867Z,13.93
2023-02-23T11:16:40.309Z,13.44
2023-02-23T11:19:41.611Z,13.76
2023-02-23T11:22:44.516Z,13.84
2023-02-23T11:25:48.585Z,13.86
2023-02-23T11:28:55.050Z,13.84
2023-02-23T11:31:58.227Z,13.88
2023-02-23T11:35:26.616Z,13.86
2023-02-23T11:38:31.625Z,13.68
2023-02-23T11:41:34.594Z,13.45
2023-02-23T11:44:37.140Z,14.00
2023-02-23T11:47:41.710Z,13.94
2023-02-23T11:50:47.997Z,13.74
2023-02-23T11:53:49.374Z,13.69
2023-02-23T11:56:54.209Z,13.75
2023-02-23T11:59:57.303Z,13.57
2023-02-23T12:03:01.130Z,13.57
2023-02-23T12:06:04.186Z,13.72
2023-02-23T12:09:17.620Z,13.96
2023-02-23T12:12:23.316Z,13.98
2023-02-23T12:15:32.919Z,13.93
2023-02-23T12:18:44.721Z,14.14
2023-02-23T12:21:50.630Z,14.11
2023-02-23T12:24:58.313Z,13.92
2023-02-23T12:28:18.082Z,13.57
2023-02-23T12:31:29.180Z,13.57
2023-02-23T12:34:42.376Z,13.75
2023-02-23T12:37:48.373Z,13.77
2023-02-23T12:40:51.677Z,13.55
2023-02-23T12:43:58.373Z,13.52
2023-02-23T12:47:07.195Z,13.49
2023-02-23T12:53:40.526Z,13.33
2023-02-23T13:00:43.101Z,13.42
2023-02-23T13:04:04.827Z,13.40
2023-02-23T13:07:17.957Z,13.30
2023-02-23T13:14:01.212Z,13.15
2023-02-23T13:17:11.990Z,13.26
2023-02-23T13:20:21.987Z,13.02
2023-02-23T13:23:30.278Z,13.02
2023-02-23T13:30:01.418Z,12.98
2023-02-23T13:33:12.741Z,12.99
2023-02-23T13:36:14.792Z,12.96
2023-02-23T13:39:46.901Z,12.98
2023-02-23T13:42:59.270Z,12.79
2023-02-23T13:46:13.853Z,12.59
2023-02-23T13:49:24.078Z,12.68
2023-02-23T13:52:30.385Z,12.69
2023-02-23T13:55:50.183Z,12.71
2023-02-23T13:58:56.932Z,12.62
2023-02-23T14:02:03.108Z,12.58
2023-02-23T14:05:11.609Z,12.37
2023-02-23T14:11:50.428Z,12.35
2023-02-23T14:14:53.090Z,12.34
2023-02-23T14:17:59.202Z,12.38
2023-02-23T14:21:17.557Z,12.33
2023-02-23T14:24:23.163Z,12.25
2023-02-23T14:27:41.303Z,12.09
2023-02-23T14:30:49.760Z,11.99
2023-02-23T14:33:58.864Z,11.85
2023-02-23T14:37:14.005Z,11.77
2023-02-23T14:40:19.620Z,11.67
2023-02-23T14:43:44.825Z,11.79
2023-02-23T14:46:54.178Z,11.72
2023-02-23T14:49:58.940Z,11.60
2023-02-23T14:53:02.727Z,11.60
2023-02-23T14:56:04.693Z,11.56
2023-02-23T14:59:08.040Z,11.62
2023-02-23T15:02:11.359Z,11.47
2023-02-23T15:05:17.172Z,11.47
2023-02-23T15:11:49.094Z,11.37
2023-02-23T15:14:52.361Z,11.23
2023-02-23T15:17:56.879Z,11.23
2023-02-23T15:20:59.703Z,11.23
2023-02-23T15:24:07.332Z,11.29
2023-02-23T15:27:23.139Z,11.43
2023-02-23T15:30:31.276Z,11.20
2023-02-23T15:36:58.842Z,11.11
2023-02-23T15:40:04.249Z,11.04
2023-02-23T15:43:06.875Z,11.04
2023-02-23T15:46:14.861Z,11.11
2023-02-23T15:49:18.637Z,10.97
2023-02-23T15:52:23.954Z,10.98
2023-02-23T15:55:27.449Z,10.95
2023-02-23T15:58:30.751Z,10.89
2023-02-23T16:01:32.892Z,10.70
2023-02-23T16:04:43.671Z,10.55
2023-02-23T16:07:44.984Z,10.59
2023-02-23T16:10:47.825Z,10.61
2023-02-23T16:13:52.307Z,10.63
2023-02-23T16:17:10.589Z,10.68
2023-02-23T16:20:18.008Z,10.58
2023-02-23T16:23:33.289Z,10.48
2023-02-23T16:26:43.741Z,10.45
2023-02-23T16:29:45.689Z,10.43
2023-02-23T16:32:49.220Z,10.42
2023-02-23T16:35:52.914Z,10.37
2023-02-23T16:42:26.469Z,10.37
2023-02-23T16:45:30.064Z,10.38
2023-02-23T16:48:32.290Z,10.36
2023-02-23T16:51:34.240Z,10.31
2023-02-23T16:54:36.752Z,10.28
2023-02-23T16:57:40.349Z,10.29
2023-02-23T17:00:43.161Z,10.23
2023-02-23T17:03:52.755Z,10.22
2023-02-23T17:06:57.004Z,10.22
2023-02-23T17:10:00.037Z,10.21
2023-02-23T17:13:04.254Z,10.21
2023-02-23T17:19:29.708Z,10.14
2023-02-23T17:22:39.768Z,10.13
2023-02-23T17:25:41.044Z,10.14
2023-02-23T17:28:42.473Z,10.10
2023-02-23T17:31:44.328Z,10.03
2023-02-23T17:34:49.350Z,9.96
2023-02-23T17:37:50.998Z,9.96
2023-02-23T17:40:54.055Z,10.04
2023-02-23T17:43:56.629Z,10.05
2023-02-23T17:46:57.938Z,10.06
2023-02-23T17:50:01.310Z,10.03
2023-02-23T17:53:02.781Z,10.01
2023-02-23T17:56:05.297Z,9.99
2023-02-23T17:59:06.606Z,9.94
2023-02-23T18:02:14.745Z,9.99
2023-02-23T18:05:17.951Z,9.93
2023-02-23T18:08:19.418Z,9.92
2023-02-23T18:11:21.022Z,9.81
2023-02-23T18:14:23.581Z,9.74
2023-02-23T18:17:26.398Z,9.85
2023-02-23T18:20:29.550Z,9.72
2023-02-23T18:23:32.017Z,9.78
2023-02-23T18:26:33.632Z,9.74
2023-02-23T18:29:35.855Z,9.78
2023-02-23T18:32:37.260Z,9.78
2023-02-23T18:35:41.809Z,9.75
2023-02-23T18:38:43.135Z,9.73
2023-02-23T18:41:44.503Z,9.76
2023-02-23T18:44:45.868Z,9.79
2023-02-23T18:47:47.360Z,9.80
2023-02-23T18:50:56.918Z,9.74
2023-02-23T18:53:59.227Z,9.71
2023-02-23T18:57:01.778Z,9.71
2023-02-23T19:00:10.955Z,9.73
2023-02-23T19:06:38.066Z,9.72
2023-02-23T19:09:40.169Z,9.63
2023-02-23T19:12:42.386Z,9.67
2023-02-23T19:15:43.845Z,9.58
2023-02-23T19:18:46.403Z,9.59
2023-02-23T19:21:48.444Z,9.65
2023-02-23T19:24:50.219Z,9.60
2023-02-23T19:27:51.754Z,9.49
2023-02-23T19:34:22.189Z,9.45
2023-02-23T19:37:24.178Z,9.48
2023-02-23T19:40:27.755Z,9.60
2023-02-23T19:43:29.039Z,9.49
2023-02-23T19:46:30.554Z,9.36
2023-02-23T19:49:31.870Z,9.22
2023-02-23T19:52:34.366Z,9.09
2023-02-23T19:55:35.673Z,9.13
2023-02-23T19:58:38.591Z,9.06
2023-02-23T20:01:39.905Z,9.02
2023-02-23T20:04:42.395Z,8.88
2023-02-23T20:07:45.683Z,8.98
2023-02-23T20:10:47.560Z,8.84
2023-02-23T20:13:50.163Z,8.76
2023-02-23T20:16:51.495Z,8.69
2023-02-23T20:19:54.074Z,8.61
2023-02-23T20:22:56.049Z,8.67
2023-02-23T20:25:58.656Z,8.58
2023-02-23T20:29:01.125Z,8.58
2023-02-23T20:32:03.708Z,8.57
2023-02-23T20:35:05.886Z,8.61
2023-02-23T20:38:08.053Z,8.71
2023-02-23T20:41:11.105Z,8.60
2023-02-23T20:44:14.709Z,8.53
2023-02-23T20:47:16.067Z,8.48
2023-02-23T20:50:17.804Z,8.47
2023-02-23T20:53:21.041Z,8.53
2023-02-23T20:56:22.686Z,8.42
2023-02-23T20:59:28.341Z,8.39
2023-02-23T21:02:29.676Z,8.38
2023-02-23T21:05:33.959Z,8.37
2023-02-23T21:08:40.280Z,8.31
2023-02-23T21:11:41.641Z,8.31
2023-02-23T21:14:44.138Z,8.24
2023-02-23T21:17:45.390Z,8.13
2023-02-23T21:20:47.987Z,8.20
2023-02-23T21:23:50.481Z,8.23
2023-02-23T21:26:53.051Z,8.29
2023-02-23T21:29:56.291Z,8.27
2023-02-23T21:32:58.791Z,8.23
2023-02-23T21:39:21.952Z,8.15
2023-02-23T21:42:24.467Z,8.19
2023-02-23T21:45:26.975Z,8.20
2023-02-23T21:48:29.168Z,8.21
2023-02-23T21:51:36.682Z,8.18
2023-02-23T21:54:38.657Z,8.20
2023-02-23T21:57:41.178Z,8.10
2023-02-23T22:00:45.089Z,8.13
2023-02-23T22:03:47.776Z,8.05
2023-02-23T22:06:50.261Z,8.10
2023-02-23T22:09:53.365Z,8.11
2023-02-23T22:12:56.206Z,8.20
2023-02-23T22:15:59.279Z,8.18
2023-02-23T22:19:04.672Z,8.07
2023-02-23T22:22:07.691Z,8.14
2023-02-23T22:25:10.286Z,8.09
2023-02-23T22:28:12.886Z,8.07
2023-02-23T22:31:14.934Z,8.03
2023-02-23T22:34:17.573Z,8.11
2023-02-23T22:37:22.848Z,8.24
2023-02-23T22:40:27.125Z,8.12
2023-02-23T22:43:31.087Z,8.22
2023-02-23T22:46:32.416Z,8.14
2023-02-23T22:49:35.267Z,8.11
2023-02-23T22:52:37.762Z,7.96
2023-02-23T22:55:40.122Z,8.01
2023-02-23T22:58:42.913Z,8.02
2023-02-23T23:01:44.236Z,8.05
2023-02-23T23:04:47.896Z,7.99
2023-02-23T23:11:14.216Z,8.05
2023-02-23T23:14:18.428Z,8.04
2023-02-23T23:17:20.912Z,7.97
2023-02-23T23:20:24.810Z,7.95
2023-02-23T23:23:27.317Z,7.94
2023-02-23T23:26:31.029Z,7.98
2023-02-23T23:29:33.564Z,8.03
2023-02-23T23:32:35.214Z,7.99
2023-02-23T23:35:38.493Z,7.98
2023-02-23T23:38:42.700Z,7.84
2023-02-23T23:41:48.316Z,7.87
2023-02-23T23:44:50.188Z,7.87
2023-02-23T23:47:52.796Z,7.87
2023-02-23T23:50:56.275Z,7.72
2023-02-23T23:54:00.305Z,7.75
2023-02-23T23:57:02.284Z,7.74
